createdAt,value
2018-03-11T00:01:34.989Z,10.50
2018-03-11T00:04:00.957Z,10.50
2018-03-11T00:06:26.930Z,10.50
2018-03-11T00:08:53.686Z,10.50
2018-03-11T00:11:19.679Z,10.50
2018-03-11T00:13:45.643Z,10.50
2018-03-11T00:16:12.425Z,10.50
2018-03-11T00:18:38.439Z,10.50
2018-03-11T00:21:05.214Z,10.60
2018-03-11T00:23:31.311Z,10.60
2018-03-11T00:25:57.377Z,10.50
2018-03-11T00:28:23.447Z,10.60
2018-03-11T00:30:49.543Z,10.60
2018-03-11T00:33:16.318Z,10.70
2018-03-11T00:35:42.269Z,10.70
2018-03-11T00:38:08.327Z,10.70
2018-03-11T00:40:34.318Z,10.70
2018-03-11T00:43:00.331Z,10.70
2018-03-11T00:45:27.025Z,10.70
2018-03-11T00:47:52.993Z,10.70
2018-03-11T00:50:19.009Z,10.70
2018-03-11T00:52:45.005Z,10.70
2018-03-11T00:55:11.741Z,10.60
2018-03-11T00:57:37.694Z,10.60
2018-03-11T01:00:04.450Z,10.80
2018-03-11T01:02:31.161Z,10.70
2018-03-11T01:04:57.146Z,10.70
2018-03-11T01:07:23.916Z,10.70
2018-03-11T01:09:49.909Z,10.70
2018-03-11T01:12:16.625Z,10.50
2018-03-11T01:14:42.609Z,10.50
2018-03-11T01:17:08.601Z,10.60
2018-03-11T01:19:34.585Z,10.60
2018-03-11T01:22:01.302Z,10.60
2018-03-11T01:24:27.309Z,10.60
2018-03-11T01:26:53.332Z,10.70
2018-03-11T01:29:19.305Z,10.70
2018-03-11T01:31:45.265Z,10.80
2018-03-11T01:34:11.279Z,10.70
2018-03-11T01:36:37.276Z,10.70
2018-03-11T01:39:03.229Z,10.70
2018-03-11T01:41:29.185Z,10.70
2018-03-11T01:43:55.174Z,10.70
2018-03-11T01:46:21.186Z,10.70
2018-03-11T01:48:48.661Z,10.60
2018-03-11T01:51:14.629Z,10.70
2018-03-11T01:53:40.633Z,10.60
2018-03-11T01:56:06.585Z,10.70
2018-03-11T01:58:33.326Z,10.80
2018-03-11T02:00:59.278Z,10.70
2018-03-11T02:03:25.953Z,10.70
2018-03-11T02:05:51.937Z,10.60
2018-03-11T02:08:18.702Z,10.70
2018-03-11T02:10:44.721Z,10.70
2018-03-11T02:13:10.717Z,10.70
2018-03-11T02:15:36.657Z,10.80
2018-03-11T02:18:02.678Z,10.80
2018-03-11T02:20:28.653Z,10.70
2018-03-11T02:22:55.001Z,10.70
2018-03-11T02:25:21.010Z,10.60
2018-03-11T02:27:46.961Z,10.70
2018-03-11T02:30:12.905Z,10.70
2018-03-11T02:32:40.403Z,10.60
2018-03-11T02:35:07.141Z,10.80
2018-03-11T02:37:33.105Z,10.80
2018-03-11T02:39:59.789Z,10.80
2018-03-11T02:42:25.788Z,10.80
2018-03-11T02:44:52.516Z,10.70
2018-03-11T02:47:18.503Z,10.70
2018-03-11T02:49:44.489Z,10.80
2018-03-11T02:52:10.480Z,10.80
2018-03-11T02:54:36.457Z,10.70
2018-03-11T02:57:02.420Z,10.70
2018-03-11T02:59:29.185Z,10.80
2018-03-11T03:01:55.887Z,10.70
2018-03-11T03:04:21.849Z,10.70
2018-03-11T03:06:47.821Z,10.70
2018-03-11T03:09:13.765Z,10.70
2018-03-11T03:11:39.768Z,10.70
2018-03-11T03:14:05.706Z,10.80
2018-03-11T03:16:32.383Z,10.80
2018-03-11T03:18:58.359Z,10.80
2018-03-11T03:21:24.312Z,10.80
2018-03-11T03:23:50.249Z,10.80
2018-03-11T03:26:16.266Z,10.80
2018-03-11T03:28:42.240Z,10.80
2018-03-11T03:31:08.947Z,10.80
2018-03-11T03:33:34.933Z,10.80
2018-03-11T03:36:01.652Z,10.90
2018-03-11T03:38:27.630Z,10.90
2018-03-11T03:40:54.320Z,11.00
2018-03-11T03:43:20.303Z,10.90
2018-03-11T03:45:46.317Z,10.80
2018-03-11T03:48:12.304Z,10.90
2018-03-11T03:50:38.272Z,10.90
2018-03-11T03:53:04.266Z,10.90
2018-03-11T03:55:30.248Z,10.90
2018-03-11T03:57:56.216Z,10.90
2018-03-11T04:00:22.197Z,10.80
2018-03-11T04:02:48.193Z,10.90
2018-03-11T04:05:14.907Z,10.90
2018-03-11T04:07:40.869Z,10.90
2018-03-11T04:10:06.836Z,10.90
2018-03-11T04:12:32.816Z,10.90
2018-03-11T04:14:58.764Z,10.80
2018-03-11T04:17:24.728Z,10.90
2018-03-11T04:19:51.450Z,11.00
2018-03-11T04:22:17.415Z,11.00
2018-03-11T04:24:44.142Z,10.90
2018-03-11T04:27:10.096Z,10.90
2018-03-11T04:29:36.100Z,10.90
2018-03-11T04:32:02.076Z,10.80
2018-03-11T04:34:28.777Z,10.60
2018-03-11T04:36:54.765Z,10.60
2018-03-11T04:39:21.514Z,10.40
2018-03-11T04:41:47.500Z,10.30
2018-03-11T04:44:13.476Z,10.30
2018-03-11T04:46:39.455Z,10.20
2018-03-11T04:49:05.453Z,10.20
2018-03-11T04:51:31.417Z,10.00
2018-03-11T04:53:57.405Z,10.00
2018-03-11T04:56:23.392Z,10.00
2018-03-11T04:58:49.349Z,9.90
2018-03-11T05:01:15.348Z,9.80
2018-03-11T05:03:42.032Z,9.60
2018-03-11T05:06:08.173Z,9.60
2018-03-11T05:08:34.252Z,9.50
2018-03-11T05:11:00.192Z,9.50
2018-03-11T05:13:26.177Z,9.50
2018-03-11T05:15:52.127Z,9.50
2018-03-11T05:18:18.109Z,9.60
2018-03-11T05:20:44.081Z,9.70
2018-03-11T05:23:10.061Z,9.80
2018-03-11T05:25:36.046Z,9.90
2018-03-11T05:28:01.996Z,9.90
2018-03-11T05:30:27.928Z,10.00
2018-03-11T05:32:53.927Z,10.00
2018-03-11T05:35:20.628Z,10.00
2018-03-11T05:37:46.613Z,10.00
2018-03-11T05:40:13.318Z,10.10
2018-03-11T05:42:39.265Z,10.10
2018-03-11T05:45:05.232Z,10.10
2018-03-11T05:47:31.215Z,10.30
2018-03-11T05:49:57.177Z,10.30
2018-03-11T05:52:23.128Z,10.30
2018-03-11T05:54:49.129Z,10.30
2018-03-11T05:57:15.079Z,10.30
2018-03-11T05:59:41.096Z,10.40
2018-03-11T06:02:07.057Z,10.50
2018-03-11T06:04:33.044Z,10.50
2018-03-11T06:06:59.766Z,10.50
2018-03-11T06:09:25.728Z,10.40
2018-03-11T06:11:52.457Z,10.50
2018-03-11T06:14:18.437Z,10.50
2018-03-11T06:16:44.369Z,10.60
2018-03-11T06:19:10.501Z,10.60
2018-03-11T06:21:37.240Z,10.70
2018-03-11T06:24:03.949Z,10.70
2018-03-11T06:26:29.945Z,10.70
2018-03-11T06:28:56.608Z,10.70
2018-03-11T06:31:22.568Z,10.70
2018-03-11T06:33:48.541Z,10.80
2018-03-11T06:36:15.265Z,10.80
2018-03-11T06:38:41.238Z,10.80
2018-03-11T06:41:07.951Z,11.00
2018-03-11T06:43:33.903Z,11.00
2018-03-11T06:45:59.877Z,11.00
2018-03-11T06:48:25.848Z,11.10
2018-03-11T06:50:51.866Z,11.10
2018-03-11T06:53:17.822Z,11.10
2018-03-11T06:55:43.821Z,11.10
2018-03-11T06:58:09.791Z,11.10
2018-03-11T07:00:35.796Z,11.20
2018-03-11T07:03:01.744Z,11.20
2018-03-11T07:05:27.680Z,11.30
2018-03-11T07:07:53.685Z,11.40
2018-03-11T07:10:20.430Z,11.40
2018-03-11T07:12:47.121Z,11.50
2018-03-11T07:15:13.105Z,11.50
2018-03-11T07:17:39.048Z,11.60
2018-03-11T07:20:05.021Z,11.60
2018-03-11T07:22:30.995Z,11.70
2018-03-11T07:24:56.972Z,11.90
2018-03-11T07:27:23.688Z,11.80
2018-03-11T07:29:49.693Z,11.80
2018-03-11T07:32:15.643Z,11.80
2018-03-11T07:34:41.619Z,11.80
2018-03-11T07:37:07.571Z,11.90
2018-03-11T07:39:34.264Z,12.00
2018-03-11T07:42:00.290Z,12.00
2018-03-11T07:44:26.254Z,12.20
2018-03-11T07:46:52.251Z,12.30
2018-03-11T07:49:18.265Z,12.40
2018-03-11T07:51:44.204Z,12.50
2018-03-11T07:54:10.984Z,12.70
2018-03-11T07:56:36.936Z,12.60
2018-03-11T07:59:02.929Z,12.80
2018-03-11T08:01:29.626Z,12.90
2018-03-11T08:03:55.944Z,12.90
2018-03-11T08:06:21.977Z,13.00
2018-03-11T08:08:47.976Z,13.20
2018-03-11T08:11:13.948Z,13.30
2018-03-11T08:13:40.663Z,13.40
2018-03-11T08:16:06.780Z,13.40
2018-03-11T08:18:32.728Z,13.40
2018-03-11T08:20:58.675Z,13.50
2018-03-11T08:23:24.975Z,13.70
2018-03-11T08:25:50.961Z,13.80
2018-03-11T08:28:17.699Z,13.90
2018-03-11T08:30:43.677Z,13.90
2018-03-11T08:33:09.652Z,13.90
2018-03-11T08:35:35.653Z,13.90
2018-03-11T08:38:01.588Z,13.90
2018-03-11T08:40:27.640Z,13.90
2018-03-11T08:42:53.643Z,13.90
2018-03-11T08:45:20.517Z,13.70
2018-03-11T08:47:46.553Z,13.70
2018-03-11T08:50:12.575Z,13.70
2018-03-11T08:52:39.303Z,13.50
2018-03-11T08:55:05.351Z,13.50
2018-03-11T08:57:31.352Z,13.50
2018-03-11T08:59:57.366Z,13.50
2018-03-11T09:02:23.424Z,13.50
2018-03-11T09:04:49.397Z,13.50
2018-03-11T09:07:15.345Z,13.60
2018-03-11T09:09:42.056Z,13.50
2018-03-11T09:12:08.065Z,13.50
2018-03-11T09:14:34.028Z,13.60
2018-03-11T09:17:00.005Z,13.60
2018-03-11T09:19:26.724Z,13.70
2018-03-11T09:21:52.685Z,13.70
2018-03-11T09:24:18.649Z,13.60
2018-03-11T09:26:44.613Z,13.70
2018-03-11T09:29:10.598Z,13.70
2018-03-11T09:31:36.541Z,13.80
2018-03-11T09:34:03.225Z,13.90
2018-03-11T09:36:29.207Z,13.90
2018-03-11T09:38:55.905Z,13.90
2018-03-11T09:41:21.914Z,13.90
2018-03-11T09:43:48.641Z,14.00
2018-03-11T09:46:14.624Z,14.00
2018-03-11T09:48:40.589Z,14.10
2018-03-11T09:51:06.536Z,14.20
2018-03-11T09:53:32.500Z,14.30
2018-03-11T09:55:58.494Z,14.40
2018-03-11T09:58:24.457Z,14.40
2018-03-11T10:00:50.425Z,14.50
2018-03-11T10:03:17.393Z,14.70
2018-03-11T10:05:43.399Z,14.70
2018-03-11T10:08:09.340Z,14.80
2018-03-11T10:10:35.336Z,14.90
2018-03-11T10:13:01.339Z,14.80
2018-03-11T10:15:28.141Z,14.90
2018-03-11T10:17:54.109Z,14.90
2018-03-11T10:20:20.853Z,15.00
2018-03-11T10:22:47.608Z,15.00
2018-03-11T10:25:13.624Z,15.00
2018-03-11T10:27:39.799Z,15.00
2018-03-11T10:30:06.565Z,15.10
2018-03-11T10:32:32.479Z,15.10
2018-03-11T10:34:58.480Z,15.10
2018-03-11T10:37:24.473Z,15.20
2018-03-11T10:39:51.184Z,15.40
2018-03-11T10:42:17.152Z,15.40
2018-03-11T10:44:43.888Z,15.60
2018-03-11T10:47:09.949Z,15.60
2018-03-11T10:49:36.777Z,15.80
2018-03-11T10:52:02.861Z,15.80
2018-03-11T10:54:28.844Z,15.80
2018-03-11T10:56:54.834Z,15.90
2018-03-11T10:59:20.900Z,15.90
2018-03-11T11:01:53.008Z,16.00
2018-03-11T11:04:19.000Z,15.90
2018-03-11T11:06:44.948Z,16.10
2018-03-11T11:09:10.945Z,16.10
2018-03-11T11:11:37.689Z,16.20
2018-03-11T11:14:04.392Z,16.30
2018-03-11T11:16:30.382Z,16.30
2018-03-11T11:18:57.098Z,16.60
2018-03-11T11:21:23.212Z,16.50
2018-03-11T11:26:37.749Z,16.80
2018-03-11T11:29:03.691Z,16.90
2018-03-11T11:31:29.737Z,16.90
2018-03-11T11:33:55.751Z,17.10
2018-03-11T11:36:21.880Z,17.30
2018-03-11T11:38:47.853Z,17.30
2018-03-11T11:41:14.564Z,17.50
2018-03-11T11:43:40.515Z,17.50
2018-03-11T11:46:07.309Z,17.40
2018-03-11T11:48:33.306Z,17.40
2018-03-11T11:50:59.300Z,17.40
2018-03-11T11:53:25.352Z,17.50
2018-03-11T11:55:51.377Z,17.60
2018-03-11T11:58:17.352Z,17.90
2018-03-11T12:00:43.385Z,18.20
2018-03-11T12:03:09.395Z,18.40
2018-03-11T12:05:35.344Z,18.40
2018-03-11T12:08:01.318Z,18.20
2018-03-11T12:10:27.735Z,18.40
2018-03-11T12:12:53.777Z,18.50
2018-03-11T12:15:19.778Z,18.60
2018-03-11T12:17:45.775Z,18.90
2018-03-11T12:20:12.481Z,19.00
2018-03-11T12:22:38.491Z,19.00
2018-03-11T12:25:04.473Z,19.10
2018-03-11T12:27:30.436Z,19.50
2018-03-11T12:29:56.489Z,19.90
2018-03-11T12:32:23.205Z,22.50
2018-03-11T12:34:49.942Z,23.60
2018-03-11T12:37:15.909Z,23.50
2018-03-11T12:39:41.881Z,24.30
2018-03-11T12:42:07.873Z,24.10
2018-03-11T12:44:33.872Z,23.80
2018-03-11T12:46:59.847Z,24.40
2018-03-11T12:49:25.929Z,24.60
2018-03-11T12:51:51.909Z,24.60
2018-03-11T12:54:17.907Z,24.70
2018-03-11T12:56:43.906Z,24.70
2018-03-11T12:59:09.902Z,24.60
2018-03-11T13:01:35.868Z,25.00
2018-03-11T13:04:02.621Z,25.60
2018-03-11T13:06:28.612Z,25.60
2018-03-11T13:08:54.638Z,25.30
2018-03-11T13:11:20.597Z,25.70
2018-03-11T13:13:46.537Z,24.90
2018-03-11T13:16:12.505Z,25.10
2018-03-11T13:18:38.458Z,25.40
2018-03-11T13:21:05.168Z,24.20
2018-03-11T13:23:31.157Z,24.20
2018-03-11T13:25:57.873Z,24.50
2018-03-11T13:28:36.452Z,24.40
2018-03-11T13:31:02.405Z,24.80
2018-03-11T13:33:41.081Z,24.80
2018-03-11T13:36:07.088Z,25.10
2018-03-11T13:38:45.517Z,24.80
2018-03-11T13:41:11.590Z,24.40
2018-03-11T13:43:37.621Z,24.70
2018-03-11T13:46:16.121Z,24.40
2018-03-11T13:48:42.152Z,24.70
2018-03-11T13:51:08.149Z,24.80
2018-03-11T13:53:47.236Z,25.50
2018-03-11T13:56:13.233Z,25.50
2018-03-11T13:58:44.982Z,25.50
2018-03-11T14:01:10.993Z,25.50
2018-03-11T14:03:36.940Z,25.60
2018-03-11T14:06:02.916Z,25.30
2018-03-11T14:08:29.596Z,25.10
2018-03-11T14:10:55.613Z,25.10
2018-03-11T14:13:22.389Z,24.50
2018-03-11T14:15:48.370Z,24.50
2018-03-11T14:18:14.318Z,24.60
2018-03-11T14:20:40.316Z,24.30
2018-03-11T14:23:06.307Z,23.70
2018-03-11T14:25:33.022Z,22.90
2018-03-11T14:27:59.009Z,22.90
2018-03-11T14:30:25.709Z,22.30
2018-03-11T14:32:51.720Z,22.20
2018-03-11T14:35:17.660Z,21.90
2018-03-11T14:37:43.632Z,21.80
2018-03-11T14:40:09.705Z,21.60
2018-03-11T14:42:36.432Z,20.90
2018-03-11T14:45:02.418Z,20.90
2018-03-11T14:47:28.371Z,20.50
2018-03-11T14:49:54.374Z,20.40
2018-03-11T14:52:20.308Z,20.30
2018-03-11T14:54:46.260Z,20.40
2018-03-11T14:57:12.228Z,20.00
2018-03-11T14:59:38.236Z,19.90
2018-03-11T15:02:04.508Z,19.90
2018-03-11T15:04:30.533Z,19.90
2018-03-11T15:06:56.476Z,19.80
2018-03-11T15:09:22.436Z,19.70
2018-03-11T15:11:48.412Z,19.40
2018-03-11T15:14:14.352Z,19.10
2018-03-11T15:16:40.358Z,19.20
2018-03-11T15:19:07.069Z,18.90
2018-03-11T15:21:33.135Z,19.00
2018-03-11T15:23:59.088Z,19.00
2018-03-11T15:26:25.825Z,18.80
2018-03-11T15:28:51.797Z,18.70
2018-03-11T15:31:17.764Z,18.50
2018-03-11T15:33:43.737Z,18.40
2018-03-11T15:36:09.716Z,18.40
2018-03-11T15:38:35.653Z,18.40
2018-03-11T15:41:01.642Z,18.30
2018-03-11T15:43:27.605Z,18.30
2018-03-11T15:46:00.809Z,18.20
2018-03-11T15:48:26.788Z,18.10
2018-03-11T15:50:52.741Z,18.10
2018-03-11T15:53:18.704Z,18.00
2018-03-11T15:55:45.432Z,17.70
2018-03-11T15:58:11.436Z,17.70
2018-03-11T16:00:37.376Z,17.60
2018-03-11T16:03:03.385Z,17.70
2018-03-11T16:05:29.356Z,17.70
2018-03-11T16:07:55.319Z,17.60
2018-03-11T16:10:21.372Z,17.40
2018-03-11T16:12:47.365Z,17.30
2018-03-11T16:15:13.361Z,17.20
2018-03-11T16:17:39.340Z,16.90
2018-03-11T16:20:05.288Z,16.80
2018-03-11T16:22:31.280Z,16.80
2018-03-11T16:24:57.264Z,16.80
2018-03-11T16:27:23.295Z,16.70
2018-03-11T16:29:49.292Z,16.60
2018-03-11T16:32:15.273Z,16.60
2018-03-11T16:34:41.264Z,16.60
2018-03-11T16:37:07.319Z,16.60
2018-03-11T16:39:33.599Z,16.40
2018-03-11T16:42:00.329Z,16.30
2018-03-11T16:44:26.316Z,16.30
2018-03-11T16:46:53.069Z,16.00
2018-03-11T16:49:19.074Z,16.00
2018-03-11T16:51:45.069Z,16.00
2018-03-11T16:54:11.073Z,15.90
2018-03-11T16:56:37.801Z,15.90
2018-03-11T16:59:04.579Z,15.80
2018-03-11T17:01:31.280Z,15.80
2018-03-11T17:03:57.259Z,15.80
2018-03-11T17:06:24.058Z,15.70
2018-03-11T17:08:50.024Z,15.70
2018-03-11T17:11:16.712Z,15.70
2018-03-11T17:13:43.452Z,15.60
2018-03-11T17:16:10.141Z,15.50
2018-03-11T17:18:36.112Z,15.50
2018-03-11T17:21:02.100Z,15.40
2018-03-11T17:23:28.055Z,15.40
2018-03-11T17:25:54.060Z,15.30
2018-03-11T17:28:20.037Z,15.30
2018-03-11T17:30:46.003Z,15.20
2018-03-11T17:33:11.996Z,15.10
2018-03-11T17:35:38.045Z,15.10
2018-03-11T17:38:04.000Z,15.00
2018-03-11T17:40:29.944Z,14.90
2018-03-11T17:42:55.928Z,14.90
2018-03-11T17:45:21.914Z,14.90
2018-03-11T17:47:47.919Z,14.70
2018-03-11T17:50:13.851Z,14.70
2018-03-11T17:52:39.868Z,14.70
2018-03-11T17:55:05.818Z,14.70
2018-03-11T17:57:31.784Z,14.70
2018-03-11T17:59:57.729Z,14.60
2018-03-11T18:02:23.760Z,14.60
2018-03-11T18:04:49.720Z,14.60
2018-03-11T18:07:15.685Z,14.50
2018-03-11T18:09:41.689Z,14.50
2018-03-11T18:12:07.646Z,14.40
2018-03-11T18:14:34.421Z,14.40
2018-03-11T18:17:00.397Z,14.30
2018-03-11T18:19:26.340Z,14.30
2018-03-11T18:21:52.321Z,14.40
2018-03-11T18:24:18.289Z,14.20
2018-03-11T18:26:44.279Z,14.30
2018-03-11T18:29:10.239Z,14.20
2018-03-11T18:31:36.180Z,14.10
2018-03-11T18:34:02.193Z,13.90
2018-03-11T18:36:28.174Z,14.00
2018-03-11T18:38:54.144Z,14.00
2018-03-11T18:41:20.893Z,13.80
2018-03-11T18:43:46.878Z,13.80
2018-03-11T18:46:12.848Z,13.80
2018-03-11T18:48:38.833Z,13.80
2018-03-11T18:51:04.801Z,13.90
2018-03-11T18:53:37.754Z,13.80
2018-03-11T18:56:04.434Z,13.70
2018-03-11T18:58:30.420Z,13.70
2018-03-11T19:00:57.236Z,13.80
2018-03-11T19:03:23.302Z,13.70
2018-03-11T19:05:49.287Z,13.70
2018-03-11T19:08:15.239Z,13.70
2018-03-11T19:10:41.229Z,13.60
2018-03-11T19:13:08.030Z,13.50
2018-03-11T19:15:33.989Z,13.50
2018-03-11T19:17:59.943Z,13.60
2018-03-11T19:20:25.929Z,13.50
2018-03-11T19:22:51.900Z,13.50
2018-03-11T19:25:17.898Z,13.40
2018-03-11T19:27:43.839Z,13.30
2018-03-11T19:30:09.820Z,13.30
2018-03-11T19:32:37.242Z,13.20
2018-03-11T19:35:03.238Z,13.20
2018-03-11T19:37:29.238Z,13.30
2018-03-11T19:39:55.244Z,13.10
2018-03-11T19:42:21.229Z,13.20
2018-03-11T19:44:47.185Z,13.10
2018-03-11T19:47:13.972Z,13.10
2018-03-11T19:49:39.972Z,13.10
2018-03-11T19:52:05.960Z,13.10
2018-03-11T19:54:31.891Z,12.90
2018-03-11T19:56:57.889Z,12.90
2018-03-11T19:59:24.616Z,12.70
2018-03-11T20:01:50.633Z,12.70
2018-03-11T20:04:16.596Z,12.70
2018-03-11T20:06:42.588Z,12.60
2018-03-11T20:09:08.579Z,12.70
2018-03-11T20:11:35.288Z,12.60
2018-03-11T20:14:01.305Z,12.50
2018-03-11T20:16:27.305Z,12.50
2018-03-11T20:18:53.297Z,12.50
2018-03-11T20:21:19.294Z,12.50
2018-03-11T20:23:46.020Z,12.30
2018-03-11T20:26:12.042Z,12.20
2018-03-11T20:28:38.037Z,12.30
2018-03-11T20:31:04.033Z,12.20
2018-03-11T20:33:29.974Z,12.30
2018-03-11T20:35:55.975Z,12.10
2018-03-11T20:38:21.973Z,12.20
2018-03-11T20:40:48.698Z,12.00
2018-03-11T20:43:14.681Z,12.00
2018-03-11T20:45:40.625Z,12.10
2018-03-11T20:48:06.564Z,12.00
2018-03-11T20:50:32.551Z,12.10
2018-03-11T20:52:59.277Z,12.00
2018-03-11T20:55:25.305Z,12.00
2018-03-11T20:57:51.376Z,12.00
2018-03-11T21:00:18.063Z,12.00
2018-03-11T21:02:44.063Z,12.00
2018-03-11T21:05:10.768Z,12.00
2018-03-11T21:07:36.741Z,11.90
2018-03-11T21:10:02.710Z,11.90
2018-03-11T21:12:28.683Z,11.90
2018-03-11T21:14:54.670Z,12.00
2018-03-11T21:17:21.388Z,11.90
2018-03-11T21:19:47.341Z,11.90
2018-03-11T21:22:13.313Z,11.90
2018-03-11T21:24:39.272Z,11.80
2018-03-11T21:27:05.253Z,11.80
2018-03-11T21:29:31.208Z,11.70
2018-03-11T21:31:57.934Z,11.80
2018-03-11T21:34:25.658Z,11.70
2018-03-11T21:36:51.690Z,11.70
2018-03-11T21:39:17.697Z,11.80
2018-03-11T21:41:44.392Z,11.80
2018-03-11T21:44:10.409Z,11.80
2018-03-11T21:46:36.381Z,11.80
2018-03-11T21:49:02.360Z,11.90
2018-03-11T21:51:29.087Z,11.90
2018-03-11T21:53:55.056Z,11.90
2018-03-11T21:56:21.024Z,11.90
2018-03-11T21:58:47.019Z,12.00
2018-03-11T22:01:13.744Z,11.90
2018-03-11T22:03:39.813Z,11.90
2018-03-11T22:06:05.744Z,11.90
2018-03-11T22:08:32.424Z,11.80
2018-03-11T22:10:58.421Z,11.80
2018-03-11T22:13:25.140Z,11.70
2018-03-11T22:15:51.127Z,11.70
2018-03-11T22:18:17.080Z,11.80
2018-03-11T22:20:43.051Z,11.90
2018-03-11T22:23:09.016Z,11.80
2018-03-11T22:25:34.960Z,11.80
2018-03-11T22:28:01.685Z,11.70
2018-03-11T22:30:27.679Z,11.70
2018-03-11T22:32:53.742Z,11.70
2018-03-11T22:35:19.686Z,11.70
2018-03-11T22:37:45.636Z,11.70
2018-03-11T22:40:11.613Z,11.70
2018-03-11T22:42:37.552Z,11.70
2018-03-11T22:45:03.551Z,11.70
2018-03-11T22:47:29.479Z,11.70
2018-03-11T22:49:55.452Z,11.70
2018-03-11T22:52:21.503Z,11.60
2018-03-11T22:54:47.443Z,11.60
2018-03-11T22:57:13.411Z,11.70
2018-03-11T22:59:39.390Z,11.70
2018-03-11T23:02:06.112Z,11.60
2018-03-11T23:04:32.100Z,11.60
2018-03-11T23:06:58.068Z,11.60
2018-03-11T23:09:24.047Z,11.50
2018-03-11T23:11:50.764Z,11.60
2018-03-11T23:14:16.768Z,11.60
2018-03-11T23:16:42.745Z,11.60
2018-03-11T23:19:20.962Z,11.60
2018-03-11T23:21:46.897Z,11.60
2018-03-11T23:24:12.864Z,11.60
2018-03-11T23:26:39.540Z,11.60
2018-03-11T23:29:05.501Z,11.50
2018-03-11T23:31:31.476Z,11.60
2018-03-11T23:33:57.440Z,11.60
2018-03-11T23:36:23.417Z,11.50
2018-03-11T23:38:49.380Z,11.50
2018-03-11T23:41:16.101Z,11.50
2018-03-11T23:43:42.040Z,11.40
2018-03-11T23:46:08.016Z,11.40
2018-03-11T23:48:34.717Z,11.30
2018-03-11T23:51:00.664Z,11.20
2018-03-11T23:53:26.658Z,11.20
2018-03-11T23:55:52.611Z,11.10
2018-03-11T23:58:18.616Z,11.20
